Página principal
METAR-TAF:

METAR-TAF

Aeroportos :

Aeroporto de Sevilha

Sevilha, Espanha

latitude: 37-25N, longitude: 005-54W, altura: 34 m

Observação actual do tempo

O boletim foi feito há 24 minutos, às 11:30 UTC
Vento 1 kt de oes-noroeste
Temperatura 13°C
Humidade 58%
Pressão 1029 hPa
Visibilidade 10 km ou mais
sem nuvens abaixo de 1500 metros e sem cumulonimbus

METAR: LEZL 061130Z 30001KT CAVOK 13/05 Q1029 NOSIG

Hora: 12:54 (11:54 UTC)

Previsão

O boletim foi feito há 3 horas e 54 minutos, às 08:00 UTC
Previsão válida de 06 às 09 UTC a 07 às 09 UTC
Vento 5 kt de norte
Visibilidade 10 km ou mais
sem nuvens abaixo de 1500 metros e sem cumulonimbus

TAF: LEZL 060800Z 0609/0709 01005KT CAVOK TX16/0616Z TN05/0708Z

Observações e previsões do tempo de mais de 4000 aeroportos (mensagens METAR e TAF).

As estações disponíveis são os pontos amarelos e vermelhos sobre o mapa.

Mova o rato sobre o mapa para ver o nome da estação.

Depois clique no ponto para visualizar as observações e previsões meteorológicas.

Para alterar o mapa : clique nos botões verdes com uma cruz preta para aumentar o zoom; no botão verde com uma pitada de zoom; ou nas setas verdes para mapas adjacentes.


METAR-TAF: